Time;durP1;ratioP1;P1;durP2;ratioP2;P2;SDS_P1;SDS_P2;PMS_P1;PMS_P2;Temp;Humidity;BMP_temperature;BMP_pressure;BME280_temperature;BME280_humidity;BME280_pressure;Samples;Min_cycle;Max_cycle;Signal;HPM_P1;HPM_P2
2022/11/16 00:01:32;;;;;;;0.88;0.40;;;10.30;99.90;;;;;;5110081;28;20054;-76
2022/11/16 00:04:01;;;;;;;2.55;0.95;;;10.30;99.90;;;;;;5116800;28;20485;-76
2022/11/16 00:06:28;;;;;;;2.70;0.68;;;10.30;99.90;;;;;;5121121;28;20395;-77
2022/11/16 00:11:41;;;;;;;3.33;1.00;;;10.30;99.90;;;;;;5120889;28;20129;-76
2022/11/16 00:14:07;;;;;;;1.48;0.47;;;10.20;99.90;;;;;;5102739;28;20019;-76
2022/11/16 00:16:33;;;;;;;1.63;0.50;;;10.20;99.90;;;;;;5112189;28;20404;-76
2022/11/16 00:19:01;;;;;;;1.02;0.50;;;10.20;99.90;;;;;;5106038;28;20020;-78
2022/11/16 00:21:28;;;;;;;1.73;0.50;;;10.20;99.90;;;;;;5081531;28;20078;-78
2022/11/16 00:23:53;;;;;;;1.27;0.40;;;10.20;99.90;;;;;;5103936;28;20107;-78
2022/11/16 00:26:20;;;;;;;2.60;0.60;;;10.20;99.90;;;;;;5114029;28;20075;-77
2022/11/16 00:28:46;;;;;;;2.78;0.50;;;10.20;99.90;;;;;;5081481;28;20028;-77
2022/11/16 00:31:12;;;;;;;0.73;0.38;;;10.20;99.90;;;;;;5089155;28;20032;-77
2022/11/16 00:33:38;;;;;;;1.45;0.45;;;10.20;99.90;;;;;;5108134;28;20103;-77
2022/11/16 00:36:06;;;;;;;1.63;0.52;;;10.20;99.90;;;;;;5107302;28;20025;-77
2022/11/16 00:38:32;;;;;;;1.70;0.50;;;10.20;99.90;;;;;;5084623;28;20150;-77
2022/11/16 00:40:58;;;;;;;1.63;0.50;;;10.20;99.90;;;;;;5102487;28;20944;-77
2022/11/16 00:43:23;;;;;;;0.93;0.40;;;10.20;99.90;;;;;;5098630;28;20047;-77
2022/11/16 00:45:49;;;;;;;1.42;0.55;;;10.10;99.90;;;;;;5105821;28;20036;-78
2022/11/16 00:48:15;;;;;;;1.05;0.50;;;10.00;99.90;;;;;;5082631;28;20131;-78
2022/11/16 00:50:40;;;;;;;3.95;0.60;;;10.10;99.90;;;;;;5099341;28;20036;-77
2022/11/16 00:53:08;;;;;;;0.55;0.30;;;10.10;99.90;;;;;;5106394;28;20028;-76
2022/11/16 00:55:34;;;;;;;0.63;0.32;;;10.10;99.90;;;;;;5102322;28;20032;-76
2022/11/16 00:58:00;;;;;;;2.28;0.50;;;10.10;99.90;;;;;;5098447;28;20030;-76
2022/11/16 01:00:25;;;;;;;0.85;0.40;;;10.10;99.90;;;;;;5102432;28;20020;-76
2022/11/16 01:02:53;;;;;;;2.45;0.40;;;10.10;99.90;;;;;;5102556;28;20473;-77
2022/11/16 01:05:20;;;;;;;1.27;0.40;;;10.00;99.90;;;;;;5102430;28;20031;-76
2022/11/16 01:07:45;;;;;;;1.23;0.50;;;10.00;99.90;;;;;;5081258;28;20024;-76
2022/11/16 01:10:13;;;;;;;1.58;0.40;;;10.00;99.90;;;;;;5103342;28;20096;-77
2022/11/16 01:12:39;;;;;;;2.17;0.75;;;10.00;99.90;;;;;;5098686;28;20099;-78
2022/11/16 01:15:09;;;;;;;1.10;0.40;;;10.00;99.90;;;;;;5100102;28;20034;-77
2022/11/16 01:17:39;;;;;;;2.15;0.38;;;10.00;99.90;;;;;;5082522;28;20019;-77
2022/11/16 01:20:08;;;;;;;0.95;0.50;;;10.00;99.90;;;;;;5103618;28;20038;-77
2022/11/16 01:22:38;;;;;;;1.80;0.60;;;10.00;99.90;;;;;;5101408;28;20488;-76
2022/11/16 01:25:05;;;;;;;0.98;0.43;;;10.00;99.90;;;;;;5081105;28;20061;-78
2022/11/16 01:27:31;;;;;;;1.52;0.35;;;10.10;99.90;;;;;;5102460;28;20016;-78
2022/11/16 01:29:57;;;;;;;1.17;0.35;;;10.10;99.90;;;;;;5105364;28;20519;-77
2022/11/16 01:32:22;;;;;;;1.77;0.50;;;10.10;99.90;;;;;;5098556;28;20492;-77
2022/11/16 01:34:48;;;;;;;0.70;0.50;;;10.10;99.90;;;;;;5106581;28;20032;-78
2022/11/16 01:37:14;;;;;;;1.00;0.50;;;10.10;99.90;;;;;;5101969;28;20613;-78
2022/11/16 01:39:40;;;;;;;0.60;0.32;;;10.00;99.90;;;;;;5080686;28;20020;-79
2022/11/16 01:42:06;;;;;;;0.85;0.32;;;10.00;99.90;;;;;;5101576;28;20024;-78
2022/11/16 01:44:31;;;;;;;1.40;0.47;;;10.10;99.90;;;;;;5105009;28;20392;-77
2022/11/16 01:47:01;;;;;;;0.95;0.30;;;10.10;99.90;;;;;;5083504;28;20032;-77
2022/11/16 01:49:35;;;;;;;0.80;0.20;;;10.20;99.90;;;;;;5099752;28;20044;-78
2022/11/16 01:52:05;;;;;;;1.40;0.43;;;10.10;99.90;;;;;;5105103;28;20023;-77
2022/11/16 01:54:35;;;;;;;1.10;0.30;;;10.20;99.90;;;;;;5107061;28;20541;-78
2022/11/16 01:57:03;;;;;;;3.00;0.60;;;10.20;99.90;;;;;;5104005;28;20031;-78
2022/11/16 01:59:29;;;;;;;1.15;0.30;;;10.10;99.90;;;;;;5101830;28;20016;-77
2022/11/16 02:01:58;;;;;;;1.70;0.52;;;10.10;99.90;;;;;;5098445;28;20085;-78
2022/11/16 02:04:23;;;;;;;1.70;0.47;;;10.10;99.90;;;;;;5080712;28;20511;-78
2022/11/16 02:07:14;;;;;;;1.52;0.50;;;10.10;99.90;;;;;;5102903;28;20036;-77
2022/11/16 02:09:52;;;;;;;2.50;0.45;;;10.10;99.90;;;;;;5079569;28;20120;-78
2022/11/16 02:12:36;;;;;;;0.38;0.22;;;10.10;99.90;;;;;;5079838;28;20039;-78
2022/11/16 02:15:25;;;;;;;0.60;0.35;;;10.10;99.90;;;;;;5100215;28;20047;-78
2022/11/16 02:18:16;;;;;;;1.10;0.30;;;10.10;99.90;;;;;;5104595;28;20023;-77
2022/11/16 02:21:09;;;;;;;1.75;0.30;;;10.10;99.90;;;;;;5107069;28;20389;-79
2022/11/16 02:24:12;;;;;;;0.50;0.20;;;10.10;99.90;;;;;;5103423;28;20032;-78
2022/11/16 02:27:12;;;;;;;1.23;0.40;;;10.20;99.90;;;;;;5104541;28;20032;-78
2022/11/16 02:29:57;;;;;;;2.45;0.55;;;10.20;99.90;;;;;;5094921;28;20032;-78
2022/11/16 02:32:43;;;;;;;1.00;0.47;;;10.20;99.90;;;;;;5103872;28;20044;-78
2022/11/16 02:35:17;;;;;;;1.08;0.60;;;10.20;99.90;;;;;;5079334;28;20028;-79
2022/11/16 02:37:49;;;;;;;1.85;0.63;;;10.20;99.90;;;;;;5097873;28;20027;-76
2022/11/16 02:40:18;;;;;;;2.33;0.60;;;10.20;99.90;;;;;;5097832;28;20054;-77
2022/11/16 02:42:55;;;;;;;1.58;0.50;;;10.20;99.90;;;;;;5100683;28;20035;-77
2022/11/16 02:45:28;;;;;;;1.33;0.55;;;10.20;99.90;;;;;;5097031;28;20027;-78
2022/11/16 02:48:01;;;;;;;1.23;0.47;;;10.20;99.90;;;;;;5102229;28;20512;-79
2022/11/16 02:50:28;;;;;;;1.98;0.50;;;10.20;99.90;;;;;;5086672;28;20481;-79
2022/11/16 02:52:54;;;;;;;0.90;0.43;;;10.20;99.90;;;;;;5097670;28;20035;-79
2022/11/16 02:55:21;;;;;;;1.27;0.40;;;10.20;99.90;;;;;;5099343;28;20024;-79
2022/11/16 02:57:57;;;;;;;0.77;0.47;;;10.20;99.90;;;;;;5104427;28;20087;-79
2022/11/16 03:00:31;;;;;;;4.28;0.60;;;10.30;99.90;;;;;;5096804;28;20047;-79
2022/11/16 03:03:30;;;;;;;1.40;0.40;;;10.30;99.90;;;;;;5096192;28;20564;-79
2022/11/16 03:06:23;;;;;;;1.58;0.40;;;10.20;99.90;;;;;;5099455;28;20032;-79
2022/11/16 03:08:56;;;;;;;1.60;0.47;;;10.20;99.90;;;;;;5071571;28;20420;-80
2022/11/16 03:14:12;;;;;;;0.60;0.40;;;10.20;99.90;;;;;;5103101;28;20031;-77
2022/11/16 03:16:47;;;;;;;1.05;0.50;;;10.10;99.90;;;;;;5101252;28;20484;-78
2022/11/16 03:19:19;;;;;;;1.63;0.45;;;10.10;99.90;;;;;;5102543;28;20099;-78
2022/11/16 03:21:57;;;;;;;1.58;0.55;;;10.10;99.90;;;;;;5099640;28;20020;-78
2022/11/16 03:24:24;;;;;;;1.15;0.60;;;10.10;99.90;;;;;;5109638;28;20045;-78
2022/11/16 03:26:58;;;;;;;2.53;0.98;;;10.20;99.90;;;;;;5103125;28;20147;-78
2022/11/16 03:29:41;;;;;;;1.95;0.50;;;10.20;99.90;;;;;;5103553;28;20080;-78
2022/11/16 03:32:12;;;;;;;1.02;0.40;;;10.20;99.90;;;;;;5065941;28;20515;-77
2022/11/16 03:34:43;;;;;;;1.13;0.50;;;10.20;99.90;;;;;;5107686;28;20027;-77
2022/11/16 03:37:10;;;;;;;0.80;0.50;;;10.30;99.90;;;;;;5103575;28;20024;-77
2022/11/16 03:39:38;;;;;;;0.68;0.32;;;10.30;99.90;;;;;;5101224;28;20476;-77
2022/11/16 03:42:09;;;;;;;2.85;0.50;;;10.30;99.90;;;;;;5102976;28;20027;-79
2022/11/16 03:44:37;;;;;;;0.68;0.43;;;10.30;99.90;;;;;;5091303;28;20032;-79
2022/11/16 03:47:03;;;;;;;1.02;0.30;;;10.40;99.90;;;;;;5100459;28;20388;-78
2022/11/16 03:49:30;;;;;;;1.70;0.40;;;10.40;99.90;;;;;;5079009;28;20076;-77
2022/11/16 03:51:56;;;;;;;2.25;0.63;;;10.40;99.90;;;;;;5078893;28;20073;-77
2022/11/16 03:54:22;;;;;;;1.90;0.60;;;10.50;99.90;;;;;;5078230;28;20055;-77
2022/11/16 03:56:48;;;;;;;3.40;0.60;;;10.50;99.90;;;;;;5099840;28;20020;-78
2022/11/16 03:59:14;;;;;;;1.42;0.50;;;10.50;99.90;;;;;;5078950;28;20024;-78
2022/11/16 04:01:39;;;;;;;1.75;0.40;;;10.50;99.90;;;;;;5078389;28;20024;-78
2022/11/16 04:04:05;;;;;;;1.83;0.55;;;10.60;99.90;;;;;;5108686;28;20039;-78
2022/11/16 04:26:09;;;;;;;0.80;0.30;;;10.70;99.90;;;;;;5114373;28;20053;-79
2022/11/16 04:28:35;;;;;;;0.93;0.38;;;10.70;99.90;;;;;;5111295;28;20028;-78
2022/11/16 04:39:32;;;;;;;5.80;0.63;;;10.70;99.90;;;;;;5102177;28;20047;-77
2022/11/16 04:42:13;;;;;;;2.53;0.50;;;10.60;99.90;;;;;;5106950;28;20472;-78
2022/11/16 04:47:23;;;;;;;2.22;0.45;;;10.60;99.90;;;;;;5089200;28;20031;-78
2022/11/16 04:49:49;;;;;;;0.98;0.40;;;10.60;99.90;;;;;;5084835;28;20078;-78
2022/11/16 04:52:14;;;;;;;1.73;0.32;;;10.60;99.90;;;;;;5100221;28;20020;-78
2022/11/16 04:54:40;;;;;;;1.73;0.50;;;10.60;99.90;;;;;;5116334;28;20035;-78
2022/11/16 04:57:05;;;;;;;1.55;0.68;;;10.60;99.90;;;;;;5106383;28;20051;-79
2022/11/16 04:59:31;;;;;;;1.58;0.40;;;10.70;99.90;;;;;;5083106;28;20041;-78
2022/11/16 05:02:08;;;;;;;1.50;0.30;;;10.70;99.90;;;;;;5102973;28;20031;-77
2022/11/16 05:04:39;;;;;;;1.65;0.40;;;10.70;99.90;;;;;;5102218;28;20035;-78
2022/11/16 05:07:11;;;;;;;2.30;0.30;;;10.70;99.90;;;;;;5071070;28;20028;-77
2022/11/16 05:09:45;;;;;;;1.45;0.35;;;10.70;99.90;;;;;;5109201;28;20085;-77
2022/11/16 05:12:18;;;;;;;1.13;0.50;;;10.70;99.90;;;;;;5099610;28;20038;-80
2022/11/16 05:14:44;;;;;;;5.28;0.73;;;10.70;99.90;;;;;;5108024;28;20023;-80
2022/11/16 05:17:10;;;;;;;1.80;0.40;;;10.70;99.90;;;;;;5106324;28;20024;-80
2022/11/16 05:22:20;;;;;;;3.50;0.68;;;10.70;99.90;;;;;;5103655;28;20035;-80
2022/11/16 05:24:49;;;;;;;1.92;0.50;;;10.80;99.90;;;;;;5099793;28;20487;-80
2022/11/16 05:27:19;;;;;;;3.20;0.60;;;10.80;99.90;;;;;;5102041;28;20443;-79
2022/11/16 05:29:45;;;;;;;3.17;0.60;;;10.80;99.90;;;;;;5085370;28;20031;-79
2022/11/16 05:32:13;;;;;;;1.38;0.43;;;10.80;99.90;;;;;;5081260;28;20043;-78
2022/11/16 05:34:39;;;;;;;1.80;0.50;;;10.80;99.90;;;;;;5081244;28;20032;-79
2022/11/16 05:37:06;;;;;;;1.20;0.40;;;10.80;99.90;;;;;;5080944;28;20107;-79
2022/11/16 05:39:32;;;;;;;4.82;0.73;;;10.80;99.90;;;;;;5060642;28;20051;-79
2022/11/16 05:41:57;;;;;;;4.88;0.95;;;10.80;99.90;;;;;;5100973;28;20024;-78
2022/11/16 05:44:23;;;;;;;1.30;0.45;;;10.80;99.90;;;;;;5081013;28;20119;-79
2022/11/16 05:46:49;;;;;;;4.13;0.85;;;10.80;99.90;;;;;;5082068;28;20065;-79
2022/11/16 05:49:18;;;;;;;2.63;0.63;;;10.80;99.90;;;;;;5084769;28;20139;-79
2022/11/16 05:51:45;;;;;;;1.48;0.52;;;10.80;99.90;;;;;;5105780;28;20039;-79
2022/11/16 05:54:13;;;;;;;2.17;0.50;;;10.80;99.90;;;;;;5108074;28;20055;-79
2022/11/16 05:56:39;;;;;;;3.28;0.70;;;10.80;99.90;;;;;;5103750;28;20038;-79
2022/11/16 05:59:05;;;;;;;5.13;0.77;;;10.80;99.90;;;;;;5101198;28;20539;-79
2022/11/16 06:01:31;;;;;;;2.83;0.80;;;10.80;99.90;;;;;;5087700;28;20031;-79
2022/11/16 06:04:01;;;;;;;1.65;0.50;;;10.80;99.90;;;;;;5109890;28;20027;-79
2022/11/16 06:06:27;;;;;;;1.85;0.60;;;10.80;99.90;;;;;;5102122;28;20384;-79
2022/11/16 06:08:53;;;;;;;2.60;0.73;;;10.80;99.90;;;;;;5080467;28;20032;-79
2022/11/16 06:11:20;;;;;;;3.55;0.73;;;10.80;99.90;;;;;;5100227;28;20021;-79
2022/11/16 06:13:45;;;;;;;3.75;0.60;;;10.80;99.90;;;;;;5099038;28;20028;-79
2022/11/16 06:16:11;;;;;;;2.38;0.50;;;10.80;99.90;;;;;;5080254;28;20376;-77
2022/11/16 06:18:39;;;;;;;0.73;0.43;;;10.80;99.90;;;;;;5101238;28;20031;-76
2022/11/16 06:21:05;;;;;;;3.45;0.75;;;10.80;99.90;;;;;;5100761;28;20090;-76
2022/11/16 06:23:31;;;;;;;5.78;1.10;;;10.80;99.90;;;;;;5106395;28;20069;-76
2022/11/16 06:25:57;;;;;;;4.82;1.42;;;10.70;99.90;;;;;;5093733;28;20024;-76
2022/11/16 06:28:22;;;;;;;3.00;0.80;;;10.70;99.90;;;;;;5098753;28;20113;-77
2022/11/16 06:30:48;;;;;;;3.10;0.57;;;10.70;99.90;;;;;;5099642;28;20028;-76
2022/11/16 06:33:15;;;;;;;1.88;0.50;;;10.70;99.90;;;;;;5097420;28;20035;-76
2022/11/16 06:35:41;;;;;;;3.78;0.90;;;10.70;99.90;;;;;;5099071;28;20059;-76
2022/11/16 06:38:06;;;;;;;0.73;0.30;;;10.70;99.90;;;;;;5096653;28;20028;-76
2022/11/16 06:40:32;;;;;;;1.15;0.40;;;10.60;99.90;;;;;;5101802;28;20022;-76
2022/11/16 06:42:58;;;;;;;1.75;0.50;;;10.60;99.90;;;;;;5109314;28;20030;-77
2022/11/16 06:45:25;;;;;;;1.25;0.43;;;10.60;99.90;;;;;;5115680;28;20073;-77
2022/11/16 06:47:51;;;;;;;2.55;0.63;;;10.60;99.90;;;;;;5118186;28;20408;-76
2022/11/16 06:50:19;;;;;;;0.73;0.40;;;10.60;99.90;;;;;;5118064;28;20016;-78
2022/11/16 06:52:46;;;;;;;2.30;0.40;;;10.60;99.90;;;;;;5117296;28;20027;-78
2022/11/16 06:55:12;;;;;;;4.60;0.70;;;10.60;99.90;;;;;;5117629;28;20027;-77
2022/11/16 06:57:39;;;;;;;4.65;0.75;;;10.60;99.90;;;;;;5099386;28;20024;-77
2022/11/16 07:00:05;;;;;;;1.92;0.50;;;10.60;99.90;;;;;;5118027;28;20423;-76
2022/11/16 07:02:31;;;;;;;1.80;0.55;;;10.60;99.90;;;;;;5110500;28;20024;-76
2022/11/16 07:04:56;;;;;;;1.98;0.40;;;10.70;99.90;;;;;;5116317;28;20069;-76
2022/11/16 07:07:22;;;;;;;2.13;0.38;;;10.60;99.90;;;;;;5099919;28;20161;-76
2022/11/16 07:09:47;;;;;;;2.40;0.50;;;10.60;99.90;;;;;;5117966;28;20032;-76
2022/11/16 07:12:13;;;;;;;1.38;0.50;;;10.70;99.90;;;;;;5099645;28;20034;-77
2022/11/16 07:14:39;;;;;;;2.25;0.50;;;10.70;99.90;;;;;;5099333;28;20038;-76
2022/11/16 07:17:05;;;;;;;2.67;0.50;;;10.70;99.90;;;;;;5118576;28;20455;-78
2022/11/16 07:19:32;;;;;;;0.85;0.40;;;10.70;99.90;;;;;;5099352;28;20012;-77
2022/11/16 07:21:59;;;;;;;1.27;0.50;;;10.70;99.90;;;;;;5097611;28;20024;-76
2022/11/16 07:24:25;;;;;;;1.70;0.40;;;10.70;99.90;;;;;;5097393;28;20020;-77
2022/11/16 07:26:50;;;;;;;1.13;0.40;;;10.70;99.90;;;;;;5097363;28;20038;-76
2022/11/16 07:29:16;;;;;;;1.98;0.82;;;10.70;99.90;;;;;;5102487;28;20015;-77
2022/11/16 07:31:42;;;;;;;0.90;0.40;;;10.70;99.90;;;;;;5079039;28;20032;-82
2022/11/16 07:34:07;;;;;;;2.70;0.73;;;10.70;99.90;;;;;;5078994;28;20039;-80
2022/11/16 07:36:38;;;;;;;1.67;0.55;;;10.70;99.90;;;;;;5104071;28;20601;-83
2022/11/16 07:39:05;;;;;;;1.52;0.30;;;10.80;99.90;;;;;;5112740;28;20041;-82
2022/11/16 07:41:34;;;;;;;2.97;0.85;;;10.80;99.90;;;;;;5094846;28;20024;-82
2022/11/16 07:44:03;;;;;;;1.10;0.35;;;10.80;99.90;;;;;;5096162;28;20036;-80
2022/11/16 07:46:29;;;;;;;1.40;0.50;;;10.90;99.90;;;;;;5097143;28;20055;-82
2022/11/16 07:48:56;;;;;;;1.63;0.50;;;10.90;99.90;;;;;;5094622;28;20382;-82
2022/11/16 07:51:24;;;;;;;2.03;0.60;;;10.90;99.90;;;;;;5078895;28;20132;-81
2022/11/16 07:53:54;;;;;;;1.92;0.50;;;10.90;99.90;;;;;;5078252;28;20035;-81
2022/11/16 07:56:21;;;;;;;3.28;0.65;;;10.90;99.90;;;;;;5077932;28;20022;-80
2022/11/16 07:58:47;;;;;;;1.85;0.68;;;10.90;99.90;;;;;;5095245;28;20097;-80
2022/11/16 08:01:14;;;;;;;3.47;0.68;;;10.90;99.90;;;;;;5095229;28;20020;-78
2022/11/16 08:03:41;;;;;;;2.08;0.60;;;10.90;99.90;;;;;;5077740;28;20036;-79
2022/11/16 08:06:31;;;;;;;2.05;0.80;;;10.90;99.90;;;;;;5096572;28;20074;-78
2022/11/16 08:08:56;;;;;;;5.72;0.93;;;10.90;99.90;;;;;;5098565;28;20036;-79
2022/11/16 08:11:22;;;;;;;1.33;0.52;;;10.90;99.90;;;;;;5100127;28;20077;-78
2022/11/16 08:13:48;;;;;;;3.53;0.80;;;10.90;99.90;;;;;;5100994;28;20028;-78
2022/11/16 08:16:16;;;;;;;1.60;0.50;;;10.90;99.90;;;;;;5100811;28;20016;-79
2022/11/16 08:18:43;;;;;;;3.53;0.73;;;11.00;99.90;;;;;;5100867;28;20027;-78
2022/11/16 08:21:11;;;;;;;3.30;0.65;;;11.00;99.90;;;;;;5100817;28;20020;-78
2022/11/16 08:23:39;;;;;;;2.35;0.95;;;11.00;99.90;;;;;;5082944;28;20115;-78
2022/11/16 08:26:08;;;;;;;4.57;1.10;;;11.10;99.90;;;;;;5100974;28;20020;-78
2022/11/16 08:28:34;;;;;;;3.95;0.80;;;11.10;99.90;;;;;;5083317;28;20522;-78
2022/11/16 08:31:13;;;;;;;5.82;1.05;;;11.10;99.90;;;;;;5101368;28;20054;-79
2022/11/16 08:33:39;;;;;;;1.50;0.55;;;11.20;99.90;;;;;;5121310;28;20028;-79
2022/11/16 08:36:06;;;;;;;3.42;0.73;;;11.20;99.90;;;;;;5120810;28;20085;-78
2022/11/16 08:38:32;;;;;;;4.55;1.15;;;11.20;99.90;;;;;;5113697;28;20107;-79
2022/11/16 08:40:58;;;;;;;4.80;0.95;;;11.20;99.90;;;;;;5100417;28;20496;-79
2022/11/16 08:43:24;;;;;;;2.50;0.60;;;11.20;99.90;;;;;;5082751;28;20039;-79
2022/11/16 08:45:50;;;;;;;2.90;0.82;;;11.20;99.90;;;;;;5100305;28;20511;-78
2022/11/16 08:48:15;;;;;;;3.00;0.70;;;11.20;99.90;;;;;;5100557;28;20039;-79
2022/11/16 08:50:41;;;;;;;2.95;0.80;;;11.20;99.90;;;;;;5100179;28;20032;-78
2022/11/16 08:53:07;;;;;;;2.42;0.70;;;11.20;99.90;;;;;;5082297;28;20032;-80
2022/11/16 08:55:33;;;;;;;2.85;0.90;;;11.30;99.90;;;;;;5100451;28;20095;-80
2022/11/16 08:57:58;;;;;;;1.58;0.63;;;11.30;99.90;;;;;;5082187;28;20085;-80
2022/11/16 09:00:24;;;;;;;2.92;0.50;;;11.30;99.90;;;;;;5099976;28;20472;-77
2022/11/16 09:02:50;;;;;;;1.42;0.50;;;11.40;99.90;;;;;;5100281;28;20116;-81
2022/11/16 09:05:16;;;;;;;5.20;0.80;;;11.40;99.90;;;;;;5081810;28;20496;-78
2022/11/16 09:07:44;;;;;;;3.25;0.75;;;11.50;99.90;;;;;;5082178;28;20160;-78
2022/11/16 09:10:10;;;;;;;3.22;0.70;;;11.50;99.90;;;;;;5082102;28;20365;-80
2022/11/16 09:12:36;;;;;;;3.05;0.60;;;11.50;99.90;;;;;;5081641;28;20024;-80
2022/11/16 09:15:04;;;;;;;2.22;0.75;;;11.60;99.90;;;;;;5099696;28;20141;-80
2022/11/16 09:17:30;;;;;;;3.22;0.93;;;11.60;99.90;;;;;;5082110;28;20012;-80
2022/11/16 09:19:55;;;;;;;5.68;0.90;;;11.60;99.90;;;;;;5099339;28;20034;-80
2022/11/16 09:22:21;;;;;;;3.55;1.00;;;11.70;99.90;;;;;;5099905;28;20095;-79
2022/11/16 09:24:47;;;;;;;6.05;1.10;;;11.70;99.90;;;;;;5099739;28;20062;-79
2022/11/16 09:27:13;;;;;;;4.25;1.48;;;11.70;99.90;;;;;;5099652;28;20020;-81
2022/11/16 09:29:39;;;;;;;3.58;1.00;;;11.80;99.90;;;;;;5081178;28;20038;-81
2022/11/16 09:32:05;;;;;;;8.40;1.45;;;11.80;99.90;;;;;;5109608;28;20061;-82
2022/11/16 09:34:33;;;;;;;2.10;0.90;;;11.90;99.90;;;;;;5119857;28;20487;-81
2022/11/16 09:37:00;;;;;;;4.63;0.98;;;11.90;99.90;;;;;;5101755;28;20483;-81
2022/11/16 09:39:26;;;;;;;4.43;0.82;;;11.90;99.90;;;;;;5105249;28;20027;-81
2022/11/16 09:42:19;;;;;;;6.60;1.17;;;11.90;99.90;;;;;;5081394;28;20028;-82
2022/11/16 09:45:18;;;;;;;3.88;1.00;;;11.90;99.90;;;;;;5099464;28;20024;-81
2022/11/16 09:47:51;;;;;;;3.78;1.13;;;11.90;99.90;;;;;;5099303;28;20035;-81
2022/11/16 09:50:26;;;;;;;4.63;1.17;;;11.90;99.90;;;;;;5081548;28;20044;-81
2022/11/16 09:52:56;;;;;;;9.95;1.77;;;11.90;99.90;;;;;;5080818;28;20028;-81
2022/11/16 09:55:32;;;;;;;6.10;1.23;;;11.90;99.90;;;;;;5081355;28;20384;-81
2022/11/16 09:58:00;;;;;;;3.72;0.93;;;11.90;99.90;;;;;;5081138;28;20024;-81
2022/11/16 10:00:29;;;;;;;6.32;1.77;;;11.90;99.90;;;;;;5098974;28;20024;-81
2022/11/16 10:02:57;;;;;;;8.13;1.52;;;11.90;99.90;;;;;;5080972;28;20542;-81
2022/11/16 10:05:29;;;;;;;5.22;1.48;;;11.90;99.90;;;;;;5081032;28;20372;-81
2022/11/16 10:08:23;;;;;;;6.57;1.38;;;11.90;99.90;;;;;;5081099;28;20474;-81
2022/11/16 10:11:22;;;;;;;7.15;1.23;;;11.90;99.90;;;;;;5080869;28;20044;-83
2022/11/16 10:13:48;;;;;;;6.93;1.60;;;12.00;99.90;;;;;;5098768;28;20362;-83
2022/11/16 10:16:25;;;;;;;2.78;0.90;;;12.00;99.90;;;;;;5098948;28;20073;-83
2022/11/16 10:19:38;;;;;;;3.17;0.95;;;12.00;99.90;;;;;;5080806;28;20020;-82
2022/11/16 10:22:25;;;;;;;5.10;1.20;;;12.10;99.90;;;;;;4980363;28;20030;-82
2022/11/16 10:25:16;;;;;;;5.13;1.10;;;12.10;99.90;;;;;;4980446;28;20038;-82
2022/11/16 10:28:13;;;;;;;5.30;1.05;;;12.10;99.90;;;;;;5082009;28;20044;-82
2022/11/16 10:31:18;;;;;;;2.97;0.80;;;12.10;99.90;;;;;;5097776;28;20423;-82
2022/11/16 10:33:48;;;;;;;3.72;1.30;;;12.10;99.90;;;;;;5080121;28;20032;-81
2022/11/16 10:36:15;;;;;;;3.90;0.82;;;12.10;99.90;;;;;;5098282;28;20058;-83
2022/11/16 10:38:41;;;;;;;3.40;0.85;;;12.10;99.90;;;;;;5072099;28;20078;-82
2022/11/16 10:41:20;;;;;;;4.25;1.20;;;12.10;99.90;;;;;;5094431;28;20033;-82
2022/11/16 10:43:47;;;;;;;5.78;1.40;;;12.10;99.90;;;;;;5100867;28;20379;-86
2022/11/16 10:46:43;;;;;;;5.97;1.83;;;12.20;99.90;;;;;;5112738;28;20024;-86
2022/11/16 10:49:28;;;;;;;6.63;1.67;;;12.10;99.90;;;;;;5080047;28;20072;-86
2022/11/16 10:51:53;;;;;;;6.75;1.73;;;12.10;99.90;;;;;;5080116;28;20024;-81
2022/11/16 10:54:21;;;;;;;5.50;1.38;;;12.10;99.90;;;;;;5117581;28;20016;-81
2022/11/16 10:56:54;;;;;;;11.02;1.92;;;12.00;99.90;;;;;;5117843;28;20027;-81
2022/11/16 10:59:20;;;;;;;8.35;2.25;;;12.00;99.90;;;;;;5118419;28;20035;-82
2022/11/16 11:01:56;;;;;;;12.95;2.55;;;12.00;99.90;;;;;;5100146;28;20507;-79
2022/11/16 11:04:24;;;;;;;8.23;1.90;;;12.10;99.90;;;;;;5118312;28;20020;-81
2022/11/16 11:07:11;;;;;;;14.05;2.58;;;12.00;99.90;;;;;;5099867;28;20027;-80
2022/11/16 11:09:40;;;;;;;12.00;1.98;;;12.00;99.90;;;;;;5098644;28;20111;-80
2022/11/16 11:15:02;;;;;;;5.22;1.02;;;12.10;99.90;;;;;;5117919;28;20039;-81
2022/11/16 11:17:30;;;;;;;4.68;1.20;;;12.10;99.90;;;;;;5117869;28;20020;-77
2022/11/16 11:20:06;;;;;;;6.68;1.98;;;12.10;99.90;;;;;;5118023;28;20024;-74
2022/11/16 11:22:40;;;;;;;5.53;1.40;;;12.20;99.90;;;;;;5118061;28;20108;-73
2022/11/16 11:25:19;;;;;;;3.92;1.15;;;12.20;99.90;;;;;;5099393;28;20023;-76
2022/11/16 11:27:45;;;;;;;8.48;1.60;;;12.30;99.90;;;;;;5118733;28;20028;-76
2022/11/16 11:30:18;;;;;;;6.80;1.65;;;12.30;99.90;;;;;;5110363;28;20035;-76
2022/11/16 11:32:45;;;;;;;3.05;1.10;;;12.30;99.90;;;;;;5112550;28;20031;-75
2022/11/16 11:35:31;;;;;;;6.25;1.50;;;12.30;99.90;;;;;;5117830;28;20433;-76
2022/11/16 11:38:00;;;;;;;2.72;0.80;;;12.30;99.90;;;;;;5115263;28;20055;-77
2022/11/16 11:40:31;;;;;;;3.00;0.77;;;12.30;99.90;;;;;;5097510;28;20070;-76
2022/11/16 11:43:02;;;;;;;4.60;1.02;;;12.30;99.90;;;;;;5096638;28;20058;-77
2022/11/16 11:45:47;;;;;;;5.05;1.58;;;12.30;99.90;;;;;;5097403;28;20077;-77
2022/11/16 11:48:12;;;;;;;6.30;1.52;;;12.40;99.90;;;;;;5097342;28;20074;-78
2022/11/16 11:50:46;;;;;;;5.72;1.77;;;12.40;99.90;;;;;;5078971;28;20020;-78
2022/11/16 11:53:23;;;;;;;4.10;1.27;;;12.30;99.90;;;;;;5106871;28;20062;-78
2022/11/16 11:55:56;;;;;;;5.28;1.40;;;12.30;99.90;;;;;;5117227;28;20020;-78
2022/11/16 11:58:25;;;;;;;;;;;12.40;99.90;;;;;;5118317;28;20076;-80
2022/11/16 12:01:05;;;;;;;2.47;0.70;;;12.40;99.90;;;;;;5106455;28;19965;-79
2022/11/16 12:03:49;;;;;;;1.95;0.85;;;12.30;99.90;;;;;;5096326;28;20020;-79
2022/11/16 12:06:27;;;;;;;3.58;1.30;;;12.30;99.90;;;;;;5097217;28;20024;-78
2022/11/16 12:09:26;;;;;;;2.35;0.90;;;12.40;99.90;;;;;;5069563;28;20381;-75
2022/11/16 12:12:20;;;;;;;3.25;0.95;;;12.30;99.90;;;;;;5071631;28;20059;-74
2022/11/16 12:14:57;;;;;;;2.63;0.70;;;12.40;99.90;;;;;;5094091;28;20027;-74
2022/11/16 12:17:32;;;;;;;2.13;0.63;;;12.40;99.90;;;;;;5102899;28;20055;-72
2022/11/16 12:20:29;;;;;;;1.33;0.50;;;12.40;99.90;;;;;;5089644;28;20074;-73
2022/11/16 12:23:00;;;;;;;3.40;0.75;;;12.40;99.90;;;;;;5095221;28;20030;-76
2022/11/16 12:25:52;;;;;;;2.47;0.90;;;12.40;99.90;;;;;;5079650;28;20095;-74
2022/11/16 12:28:41;;;;;;;4.43;0.70;;;12.40;99.90;;;;;;5080516;28;20020;-75
2022/11/16 12:31:16;;;;;;;3.15;0.57;;;12.40;99.90;;;;;;5093899;28;20020;-79
2022/11/16 12:34:04;;;;;;;3.17;0.88;;;12.40;99.90;;;;;;5079494;28;20558;-79
2022/11/16 12:36:50;;;;;;;2.97;0.85;;;12.30;99.90;;;;;;5078864;28;20476;-77
2022/11/16 12:39:33;;;;;;;2.55;0.73;;;12.40;99.90;;;;;;5070582;28;20151;-78
2022/11/16 12:42:23;;;;;;;2.97;0.90;;;12.40;99.90;;;;;;5117065;28;20521;-77
2022/11/16 12:45:22;;;;;;;1.98;0.77;;;12.40;99.90;;;;;;5098858;28;20084;-79
2022/11/16 12:48:12;;;;;;;1.70;0.73;;;12.40;99.90;;;;;;5102324;28;20058;-78
2022/11/16 12:51:08;;;;;;;4.22;1.00;;;12.40;99.90;;;;;;5107899;28;20470;-72
2022/11/16 12:54:05;;;;;;;2.67;0.93;;;12.50;99.90;;;;;;5110707;28;20380;-71
2022/11/16 12:56:51;;;;;;;3.45;0.90;;;12.50;99.90;;;;;;5120519;28;20026;-72
2022/11/16 12:59:26;;;;;;;2.88;0.70;;;12.50;99.90;;;;;;5107046;28;20024;-71
2022/11/16 13:01:54;;;;;;;2.85;1.00;;;12.50;99.90;;;;;;5100209;28;20020;-72
2022/11/16 13:04:27;;;;;;;2.70;0.77;;;12.50;99.90;;;;;;5103149;28;20020;-73
2022/11/16 13:07:03;;;;;;;3.63;1.17;;;12.50;99.90;;;;;;5086718;28;20036;-73
2022/11/16 13:09:33;;;;;;;2.70;1.15;;;12.60;99.90;;;;;;5075353;28;20281;-73
2022/11/16 13:12:04;;;;;;;3.17;1.00;;;12.60;99.90;;;;;;5094098;28;20027;-75
2022/11/16 13:14:37;;;;;;;3.15;1.17;;;12.50;99.90;;;;;;5072925;28;20060;-75
2022/11/16 13:17:05;;;;;;;2.50;1.00;;;12.60;99.90;;;;;;5079137;28;20037;-78
2022/11/16 13:19:34;;;;;;;2.38;1.13;;;12.60;99.90;;;;;;5095204;28;20020;-80
2022/11/16 13:22:08;;;;;;;5.78;1.50;;;12.60;99.90;;;;;;5097360;28;20070;-80
2022/11/16 13:24:43;;;;;;;2.92;0.90;;;12.60;99.90;;;;;;5098146;28;20028;-80
2022/11/16 13:27:23;;;;;;;1.98;0.90;;;12.60;99.90;;;;;;5099145;28;20020;-78
2022/11/16 13:30:04;;;;;;;2.00;0.70;;;12.60;99.90;;;;;;5098257;28;20026;-78
2022/11/16 13:32:45;;;;;;;2.53;0.80;;;12.70;99.90;;;;;;5105383;28;20085;-77
2022/11/16 13:35:16;;;;;;;1.52;0.68;;;12.70;99.90;;;;;;5105964;28;20519;-78
2022/11/16 13:37:49;;;;;;;2.97;0.90;;;12.70;99.90;;;;;;5082356;28;20399;-80
2022/11/16 13:40:22;;;;;;;1.40;0.70;;;12.80;99.90;;;;;;5098636;28;20019;-79
2022/11/16 13:43:08;;;;;;;2.22;0.80;;;12.70;99.90;;;;;;5119115;28;20076;-78
2022/11/16 13:45:49;;;;;;;3.80;0.80;;;12.70;99.90;;;;;;5100966;28;20031;-80
2022/11/16 13:48:20;;;;;;;1.58;0.57;;;12.70;99.90;;;;;;5102732;28;20374;-79
2022/11/16 13:50:52;;;;;;;3.03;0.90;;;12.70;99.90;;;;;;5079824;28;20028;-79
2022/11/16 13:53:31;;;;;;;2.72;0.75;;;12.70;99.90;;;;;;5103999;28;20027;-79